Time;durP1;ratioP1;P1;durP2;ratioP2;P2;SDS_P1;SDS_P2;PMS_P1;PMS_P2;Temp;Humidity;BMP_temperature;BMP_pressure;BME280_temperature;BME280_humidity;BME280_pressure;Samples;Min_cycle;Max_cycle;Signal;HPM_P1;HPM_P2
2022/06/25 00:01:33;;;;;;;3.57;3.03;;;;;;;20.08;100.00;100053.56;5059957;28;20191;-72
2022/06/25 00:04:00;;;;;;;3.93;3.07;;;;;;;20.09;100.00;100049.94;5061862;28;20210;-72
2022/06/25 00:06:25;;;;;;;4.00;3.30;;;;;;;20.07;100.00;100060.66;5055286;28;20219;-72
2022/06/25 00:08:52;;;;;;;4.10;3.27;;;;;;;20.03;100.00;100060.03;5066188;28;20218;-72
2022/06/25 00:14:05;;;;;;;4.50;3.50;;;;;;;19.91;100.00;100053.03;5063294;28;20555;-72
2022/06/25 00:16:33;;;;;;;5.23;3.90;;;;;;;19.86;100.00;100058.63;5061081;28;20222;-72
2022/06/25 00:19:00;;;;;;;3.83;3.53;;;;;;;19.86;100.00;100048.06;5057002;28;20206;-72
2022/06/25 00:21:26;;;;;;;3.57;3.27;;;;;;;19.85;100.00;100049.00;5064361;28;20199;-72
2022/06/25 00:23:53;;;;;;;8.00;3.43;;;;;;;19.82;100.00;100048.38;5062078;28;20206;-72
2022/06/25 00:26:19;;;;;;;5.93;3.57;;;;;;;19.77;100.00;100040.81;5058476;28;20227;-72
2022/06/25 00:28:46;;;;;;;3.63;3.33;;;;;;;19.73;100.00;100041.09;5061806;28;20260;-72
2022/06/25 00:31:12;;;;;;;5.07;3.80;;;;;;;19.69;100.00;100048.44;5061217;28;20215;-72
2022/06/25 00:33:41;;;;;;;3.90;3.50;;;;;;;19.64;100.00;100051.41;5049013;28;20207;-72
2022/06/25 00:36:08;;;;;;;5.63;3.40;;;;;;;19.56;100.00;100044.97;5051810;28;20313;-72
2022/06/25 00:38:35;;;;;;;4.20;3.27;;;;;;;19.54;100.00;100041.59;5060452;28;20199;-72
2022/06/25 00:41:03;;;;;;;4.17;3.60;;;;;;;19.51;100.00;100042.69;5049454;28;20214;-72
2022/06/25 00:43:30;;;;;;;5.03;3.60;;;;;;;19.48;100.00;100038.44;5068748;28;20212;-72
2022/06/25 00:45:57;;;;;;;3.67;3.33;;;;;;;19.44;100.00;100044.09;5064648;28;20223;-72
2022/06/25 00:48:23;;;;;;;4.03;3.40;;;;;;;19.41;100.00;100039.84;5059344;28;20195;-72
2022/06/25 00:50:53;;;;;;;4.87;3.60;;;;;;;19.39;100.00;100052.34;5048506;28;20223;-72
2022/06/25 00:53:21;;;;;;;4.00;3.60;;;;;;;19.38;100.00;100044.53;5041487;28;20210;-72
2022/06/25 00:55:50;;;;;;;3.97;3.50;;;;;;;19.39;100.00;100046.22;5060093;28;20357;-72
2022/06/25 00:58:22;;;;;;;5.50;3.80;;;;;;;19.36;100.00;100047.28;5052663;28;20568;-72
2022/06/25 01:00:49;;;;;;;4.03;3.60;;;;;;;19.35;100.00;100056.16;5063340;28;20207;-72
2022/06/25 01:03:15;;;;;;;4.13;3.70;;;;;;;19.33;100.00;100051.94;5048784;28;20199;-72
2022/06/25 01:05:42;;;;;;;5.07;4.17;;;;;;;19.31;100.00;100052.03;5058976;28;20196;-72
2022/06/25 01:08:10;;;;;;;4.30;3.90;;;;;;;19.25;100.00;100047.22;5065358;28;20202;-72
2022/06/25 01:10:37;;;;;;;6.97;4.27;;;;;;;19.20;100.00;100054.63;5045763;28;20203;-72
2022/06/25 01:13:03;;;;;;;4.73;4.10;;;;;;;19.17;100.00;100046.91;5044827;28;20214;-72
2022/06/25 01:15:32;;;;;;;4.50;4.10;;;;;;;19.14;100.00;100049.75;5048470;28;20294;-72
2022/06/25 01:17:58;;;;;;;5.23;4.20;;;;;;;19.16;100.00;100045.22;5060463;28;20802;-72
2022/06/25 01:20:27;;;;;;;4.50;4.10;;;;;;;19.13;100.00;100043.63;5062848;28;20229;-72
2022/06/25 01:22:56;;;;;;;4.40;4.00;;;;;;;19.11;100.00;100041.09;5065484;28;20198;-72
2022/06/25 01:25:24;;;;;;;4.87;4.17;;;;;;;19.06;100.00;100043.22;5058758;28;20203;-72
2022/06/25 01:27:52;;;;;;;4.00;3.60;;;;;;;19.07;100.00;100044.09;5062166;28;20229;-72
2022/06/25 01:30:19;;;;;;;5.67;4.30;;;;;;;19.07;100.00;100041.44;5046929;28;20301;-72
2022/06/25 01:32:46;;;;;;;4.50;4.10;;;;;;;19.02;100.00;100035.63;5047960;28;20234;-72
2022/06/25 01:35:16;;;;;;;6.10;4.73;;;;;;;18.98;100.00;100032.38;5042227;28;20433;-72
2022/06/25 01:37:43;;;;;;;4.90;4.40;;;;;;;18.95;100.00;100026.47;5047673;28;20301;-72
2022/06/25 01:40:11;;;;;;;6.33;4.47;;;;;;;18.91;100.00;100031.94;5058040;28;20829;-72
2022/06/25 01:45:22;;;;;;;4.53;4.10;;;;;;;18.90;100.00;100042.63;5042628;28;20503;-72
2022/06/25 01:47:48;;;;;;;5.93;4.73;;;;;;;18.87;100.00;100040.19;5049776;28;20729;-72
2022/06/25 01:50:16;;;;;;;5.13;4.63;;;;;;;18.83;100.00;100034.28;5044409;28;20203;-72
2022/06/25 01:52:43;;;;;;;6.27;4.43;;;;;;;18.79;100.00;100043.34;5044960;28;20235;-72
2022/06/25 01:55:11;;;;;;;4.53;4.10;;;;;;;18.78;100.00;100041.63;5057215;28;20565;-72
2022/06/25 01:57:40;;;;;;;5.50;4.77;;;;;;;18.76;100.00;100048.00;5048163;28;20219;-72
2022/06/25 02:00:11;;;;;;;6.70;4.97;;;;;;;18.75;100.00;100047.16;5049661;28;20206;-72
2022/06/25 02:02:41;;;;;;;5.40;4.70;;;;;;;18.76;100.00;100059.38;5061625;28;20195;-72
2022/06/25 02:05:09;;;;;;;5.90;4.70;;;;;;;18.71;100.00;100062.38;5047629;28;20202;-72
2022/06/25 02:07:36;;;;;;;5.70;5.20;;;;;;;18.67;100.00;100058.22;5060279;28;20229;-72
2022/06/25 02:10:02;;;;;;;6.67;4.90;;;;;;;18.66;100.00;100066.25;5048232;28;20214;-72
2022/06/25 02:12:30;;;;;;;5.97;5.17;;;;;;;18.61;100.00;100066.59;5055795;28;20454;-72
2022/06/25 02:14:56;;;;;;;5.73;4.90;;;;;;;18.60;100.00;100075.44;5048069;28;20203;-72
2022/06/25 02:17:23;;;;;;;5.73;5.13;;;;;;;18.61;100.00;100078.91;5043651;28;20223;-72
2022/06/25 02:19:50;;;;;;;4.80;4.33;;;;;;;18.60;100.00;100085.16;5045419;28;20622;-72
2022/06/25 02:22:17;;;;;;;6.63;4.70;;;;;;;18.62;100.00;100080.63;5059828;28;20562;-72
2022/06/25 02:24:43;;;;;;;6.47;4.97;;;;;;;18.63;100.00;100082.31;5046920;28;20230;-72
2022/06/25 02:27:10;;;;;;;5.23;4.30;;;;;;;18.63;100.00;100092.88;5057626;28;20226;-72
2022/06/25 02:29:39;;;;;;;6.20;4.60;;;;;;;18.64;100.00;100100.69;5046068;28;20550;-72
2022/06/25 02:32:06;;;;;;;5.23;4.73;;;;;;;18.62;100.00;100107.84;5043166;28;20202;-72
2022/06/25 02:34:32;;;;;;;6.53;4.90;;;;;;;18.62;100.00;100102.59;5063197;28;20183;-72
2022/06/25 02:36:59;;;;;;;6.00;4.67;;;;;;;18.62;100.00;100117.59;5045141;28;20214;-72
2022/06/25 02:39:28;;;;;;;5.80;4.83;;;;;;;18.63;100.00;100120.13;5042254;28;20203;-72
2022/06/25 02:41:56;;;;;;;5.30;4.50;;;;;;;18.65;100.00;100112.94;5060958;28;20731;-72
2022/06/25 02:44:23;;;;;;;5.77;5.00;;;;;;;18.67;100.00;100118.97;5046747;28;20195;-72
2022/06/25 02:46:56;;;;;;;8.07;5.93;;;;;;;18.67;100.00;100116.31;5043664;28;20226;-72
2022/06/25 02:49:27;;;;;;;7.17;4.80;;;;;;;18.66;100.00;100117.28;5048917;28;20199;-72
2022/06/25 02:51:54;;;;;;;6.07;5.47;;;;;;;18.69;100.00;100121.50;5045342;28;20206;-72
2022/06/25 02:54:21;;;;;;;5.33;4.83;;;;;;;18.69;100.00;100122.34;5044210;28;20195;-72
2022/06/25 02:59:34;;;;;;;5.50;5.00;;;;;;;18.70;100.00;100126.69;5061889;28;20592;-73
2022/06/25 03:02:04;;;;;;;6.07;5.47;;;;;;;18.73;100.00;100120.31;5043705;28;20264;-73
2022/06/25 03:04:34;;;;;;;5.83;5.17;;;;;;;18.73;100.00;100122.97;5044517;28;20199;-73
2022/06/25 03:07:00;;;;;;;5.17;4.67;;;;;;;18.73;100.00;100128.25;5060916;28;20857;-73
2022/06/25 03:09:27;;;;;;;7.37;5.43;;;;;;;18.73;100.00;100131.75;5064719;28;20198;-73
2022/06/25 03:11:55;;;;;;;7.17;5.37;;;;;;;18.77;100.00;100128.88;5045003;28;20222;-73
2022/06/25 03:14:23;;;;;;;5.90;5.27;;;;;;;18.76;100.00;100130.69;5050442;28;20202;-73
2022/06/25 03:16:49;;;;;;;5.50;5.00;;;;;;;18.77;100.00;100134.16;5042753;28;20665;-73
2022/06/25 03:19:18;;;;;;;6.93;5.73;;;;;;;18.77;100.00;100142.94;5061381;28;20226;-73
2022/06/25 03:22:04;;;;;;;10.27;5.57;;;;;;;18.78;100.00;100155.19;5058281;28;20669;-73
2022/06/25 03:24:31;;;;;;;5.50;5.00;;;;;;;18.80;100.00;100155.09;5063518;28;20511;-73
2022/06/25 03:26:59;;;;;;;6.13;5.37;;;;;;;18.80;100.00;100165.66;5047457;28;20230;-73
2022/06/25 03:29:26;;;;;;;5.93;5.27;;;;;;;18.83;100.00;100168.97;5041257;28;20650;-73
2022/06/25 03:31:52;;;;;;;7.50;5.43;;;;;;;18.85;100.00;100172.34;5043533;28;20246;-73
2022/06/25 03:34:43;;;;;;;6.03;5.33;;;;;;;18.87;100.00;100173.09;5055148;28;20233;-73
2022/06/25 03:37:09;;;;;;;7.47;6.37;;;;;;;18.89;100.00;100178.25;5047754;28;20587;-73
2022/06/25 03:39:36;;;;;;;7.87;6.50;;;;;;;18.90;100.00;100180.78;5048322;28;20222;-73
2022/06/25 03:42:04;;;;;;;8.13;6.10;;;;;;;18.92;100.00;100186.81;5045792;28;20190;-73
2022/06/25 03:44:38;;;;;;;7.17;5.90;;;;;;;18.91;100.00;100185.16;5045233;28;20259;-73
2022/06/25 03:47:15;;;;;;;6.80;5.40;;;;;;;18.93;100.00;100185.03;5041322;28;20694;-73
2022/06/25 03:49:43;;;;;;;6.23;5.60;;;;;;;18.92;100.00;100183.34;5050402;28;20215;-73
2022/06/25 03:52:15;;;;;;;7.30;6.43;;;;;;;18.94;100.00;100181.44;5045053;28;20214;-73
2022/06/25 03:54:42;;;;;;;6.67;5.87;;;;;;;18.94;100.00;100181.44;5063245;28;20284;-73
2022/06/25 03:57:10;;;;;;;6.57;5.37;;;;;;;18.95;100.00;100184.94;5046454;28;20217;-73
2022/06/25 03:59:50;;;;;;;7.83;6.23;;;;;;;18.98;100.00;100192.63;5049821;28;20283;-73
2022/06/25 04:02:23;;;;;;;6.97;6.03;;;;;;;18.98;100.00;100200.56;5065756;28;20199;-73
2022/06/25 04:05:10;;;;;;;6.60;5.97;;;;;;;18.99;100.00;100199.63;5059509;28;20331;-73
2022/06/25 04:07:37;;;;;;;7.13;6.10;;;;;;;19.02;100.00;100205.53;5043930;28;20214;-73
2022/06/25 04:10:07;;;;;;;6.83;6.13;;;;;;;19.04;100.00;100208.91;5040916;28;20206;-73
2022/06/25 04:12:34;;;;;;;6.67;5.80;;;;;;;19.08;100.00;100207.78;5054833;28;20317;-73
2022/06/25 04:15:00;;;;;;;7.23;5.80;;;;;;;19.11;100.00;100212.84;5038414;28;20235;-73
2022/06/25 04:17:26;;;;;;;6.97;6.27;;;;;;;19.13;100.00;100214.53;5042901;28;20726;-73
2022/06/25 04:19:53;;;;;;;8.03;6.20;;;;;;;19.14;100.00;100214.44;5043059;28;20199;-73
2022/06/25 04:22:21;;;;;;;10.20;6.97;;;;;;;19.13;100.00;100212.72;5044523;28;20667;-73
2022/06/25 04:24:47;;;;;;;7.80;6.20;;;;;;;19.10;100.00;100216.44;5039348;28;20662;-73
2022/06/25 04:29:54;;;;;;;7.10;6.33;;;;;;;19.16;100.00;100223.09;5038486;28;20202;-73
2022/06/25 04:32:23;;;;;;;9.30;7.10;;;;;;;19.15;100.00;100216.09;5041749;28;20272;-73
2022/06/25 04:35:13;;;;;;;6.73;6.13;;;;;;;19.17;100.00;100221.28;5038645;28;20547;-73
2022/06/25 04:37:42;;;;;;;9.33;6.97;;;;;;;19.18;100.00;100231.75;5044927;28;20222;-73
2022/06/25 04:40:11;;;;;;;6.63;6.00;;;;;;;19.17;100.00;100224.81;5044239;28;20405;-73
2022/06/25 04:42:38;;;;;;;6.97;6.27;;;;;;;19.20;100.00;100231.66;5045706;28;20236;-73
2022/06/25 04:45:06;;;;;;;7.10;6.40;;;;;;;19.20;100.00;100229.84;5047449;28;20205;-73
2022/06/25 04:47:39;;;;;;;8.60;6.70;;;;;;;19.19;100.00;100229.97;5043681;28;20284;-73
2022/06/25 04:50:29;;;;;;;7.13;6.33;;;;;;;19.21;100.00;100233.38;5058406;28;20499;-73
2022/06/25 04:52:57;;;;;;;7.70;6.90;;;;;;;19.26;100.00;100236.50;5040102;28;20301;-73
2022/06/25 04:55:24;;;;;;;7.73;6.97;;;;;;;19.29;100.00;100228.38;5038324;28;20230;-73
2022/06/25 04:57:50;;;;;;;10.03;7.07;;;;;;;19.31;100.00;100234.41;5059190;28;20222;-73
2022/06/25 05:00:54;;;;;;;7.33;6.63;;;;;;;19.34;100.00;100241.28;5061613;28;20210;-73
2022/06/25 05:03:22;;;;;;;9.87;7.00;;;;;;;19.42;100.00;100239.81;5058797;28;20285;-73
2022/06/25 05:06:08;;;;;;;7.37;6.60;;;;;;;19.44;100.00;100239.72;5061071;28;20721;-73
2022/06/25 05:08:36;;;;;;;7.83;7.03;;;;;;;19.46;100.00;100241.28;5059568;28;20298;-73
2022/06/25 05:11:03;;;;;;;8.37;7.40;;;;;;;19.49;100.00;100246.34;5046781;28;20748;-73
2022/06/25 05:13:30;;;;;;;7.57;6.87;;;;;;;19.56;100.00;100240.63;5046435;28;20179;-73
2022/06/25 05:15:57;;;;;;;7.23;6.50;;;;;;;19.60;100.00;100237.69;5066201;28;20652;-73
2022/06/25 05:18:23;;;;;;;8.53;7.07;;;;;;;19.58;100.00;100234.28;5043670;28;20248;-73
2022/06/25 05:20:50;;;;;;;9.10;6.73;;;;;;;19.67;100.00;100241.56;5048005;28;20558;-73
2022/06/25 05:23:17;;;;;;;9.07;6.70;;;;;;;19.77;100.00;100238.31;5063305;28;20660;-73
2022/06/25 05:25:46;;;;;;;11.07;6.40;;;;;;;19.79;100.00;100244.34;5045892;28;20211;-73
2022/06/25 05:28:15;;;;;;;7.63;6.83;;;;;;;19.81;100.00;100242.44;5048205;28;20213;-73
2022/06/25 05:30:42;;;;;;;8.10;7.00;;;;;;;19.80;100.00;100241.56;5044482;28;20482;-73
2022/06/25 05:33:08;;;;;;;9.60;7.57;;;;;;;19.81;100.00;100247.75;5045845;28;20215;-73
2022/06/25 05:35:35;;;;;;;8.50;7.07;;;;;;;19.82;100.00;100241.47;5062553;28;20195;-73
2022/06/25 05:38:02;;;;;;;9.60;6.87;;;;;;;19.85;100.00;100249.19;5048254;28;20675;-73
2022/06/25 05:40:28;;;;;;;8.77;7.00;;;;;;;19.92;100.00;100249.63;5045902;28;20293;-73
2022/06/25 05:42:56;;;;;;;10.57;7.20;;;;;;;19.98;100.00;100257.97;5064465;28;20191;-73
2022/06/25 05:45:22;;;;;;;7.67;6.97;;;;;;;20.07;100.00;100253.81;5060248;28;20339;-73
2022/06/25 05:47:49;;;;;;;7.37;6.37;;;;;;;20.19;100.00;100260.88;5067284;28;20292;-73
2022/06/25 05:50:15;;;;;;;7.60;6.83;;;;;;;20.23;100.00;100259.69;5062280;28;20228;-72
2022/06/25 05:52:42;;;;;;;7.90;6.80;;;;;;;20.26;100.00;100261.25;5055941;28;20218;-73
2022/06/25 05:55:08;;;;;;;9.23;6.80;;;;;;;20.25;100.00;100256.94;5062909;28;20209;-72
2022/06/25 05:57:35;;;;;;;7.73;6.93;;;;;;;20.29;100.00;100261.03;5061228;28;20725;-73
2022/06/25 06:00:04;;;;;;;7.63;6.80;;;;;;;20.37;100.00;100263.97;5059906;28;20205;-73
2022/06/25 06:02:38;;;;;;;9.10;7.13;;;;;;;20.44;100.00;100261.72;5059343;28;20210;-74
2022/06/25 06:05:05;;;;;;;7.77;6.37;;;;;;;20.50;100.00;100261.28;5063768;28;20195;-73
2022/06/25 06:07:31;;;;;;;7.13;6.43;;;;;;;20.52;100.00;100256.69;5061931;28;20413;-73
2022/06/25 06:09:57;;;;;;;6.93;6.23;;;;;;;20.51;100.00;100260.31;5062947;28;20198;-73
2022/06/25 06:12:24;;;;;;;7.30;6.60;;;;;;;20.56;100.00;100268.78;5057543;28;20222;-73
2022/06/25 06:14:50;;;;;;;7.20;6.50;;;;;;;20.65;100.00;100269.94;5059574;28;20719;-72
2022/06/25 06:17:18;;;;;;;7.53;6.73;;;;;;;20.75;100.00;100276.22;5061482;28;20738;-73
2022/06/25 06:19:44;;;;;;;9.77;7.30;;;;;;;20.82;100.00;100275.78;5058476;28;20211;-73
2022/06/25 06:22:11;;;;;;;7.53;6.77;;;;;;;20.89;100.00;100282.31;5062037;28;20580;-73
2022/06/25 06:24:37;;;;;;;7.53;6.73;;;;;;;21.05;100.00;100288.13;5063713;28;20624;-73
2022/06/25 06:27:04;;;;;;;9.07;7.07;;;;;;;21.10;100.00;100291.28;5063052;28;20218;-72
2022/06/25 06:29:31;;;;;;;8.47;6.90;;;;;;;21.15;100.00;100290.94;5064100;28;20689;-73
2022/06/25 06:31:57;;;;;;;6.93;6.03;;;;;;;21.33;100.00;100299.28;5061452;28;20211;-73
2022/06/25 06:34:25;;;;;;;7.97;6.97;;;;;;;21.33;100.00;100308.09;5063577;28;20458;-73
2022/06/25 06:36:51;;;;;;;6.93;6.23;;;;;;;21.39;100.00;100296.19;5060858;28;20226;-73
2022/06/25 06:39:18;;;;;;;7.23;6.53;;;;;;;21.50;100.00;100304.19;5062025;28;20205;-73
2022/06/25 06:41:44;;;;;;;8.53;6.63;;;;;;;21.61;100.00;100297.22;5060255;28;20194;-73
2022/06/25 06:44:10;;;;;;;8.17;7.10;;;;;;;21.69;100.00;100294.81;5063111;28;20566;-73
2022/06/25 06:46:37;;;;;;;6.53;5.93;;;;;;;21.76;100.00;100298.66;5063057;28;20702;-73
2022/06/25 06:49:03;;;;;;;7.30;6.10;;;;;;;21.87;100.00;100300.47;5064368;28;20224;-72
2022/06/25 06:51:31;;;;;;;6.60;5.73;;;;;;;22.01;100.00;100307.34;5065241;28;20209;-73
2022/06/25 06:53:58;;;;;;;7.73;6.30;;;;;;;22.21;100.00;100311.06;5061619;28;20203;-73
2022/06/25 06:56:24;;;;;;;7.97;6.23;;;;;;;22.28;100.00;100310.47;5063374;28;20644;-73
2022/06/25 06:58:51;;;;;;;6.60;6.00;;;;;;;22.43;100.00;100302.25;5060431;28;20195;-73
2022/06/25 07:01:17;;;;;;;7.40;5.60;;;;;;;22.46;100.00;100300.19;5061964;28;20226;-73
2022/06/25 07:03:43;;;;;;;6.80;6.10;;;;;;;22.53;100.00;100305.00;5059981;28;20198;-73
2022/06/25 07:06:10;;;;;;;6.25;5.65;;;;;;;22.61;100.00;100307.88;5059656;28;20230;-73
2022/06/25 07:08:38;;;;;;;9.48;5.50;;;;;;;22.81;100.00;100307.09;5065797;28;20194;-73
2022/06/25 07:11:28;;;;;;;6.10;5.50;;;;;;;22.93;100.00;100313.19;5060766;28;20186;-73
2022/06/25 07:13:53;;;;;;;6.57;5.95;;;;;;;22.97;98.35;100321.75;5061516;28;20315;-73
2022/06/25 07:16:19;;;;;;;5.80;5.30;;;;;;;23.00;97.92;100324.16;5060400;28;20238;-73
2022/06/25 07:18:46;;;;;;;6.43;5.75;;;;;;;23.13;96.81;100313.34;5061025;28;20214;-73
2022/06/25 07:21:12;;;;;;;7.50;5.25;;;;;;;23.13;98.10;100314.22;5059079;28;20205;-73
2022/06/25 07:23:40;;;;;;;5.75;5.18;;;;;;;23.29;97.42;100321.75;5060255;28;20198;-73
2022/06/25 07:26:07;;;;;;;7.47;5.13;;;;;;;23.47;91.81;100322.00;5058435;28;20214;-73
2022/06/25 07:28:33;;;;;;;7.70;5.45;;;;;;;23.72;94.09;100317.22;5061399;28;20216;-73
2022/06/25 07:31:00;;;;;;;6.32;5.72;;;;;;;23.79;90.10;100329.88;5060096;28;20198;-73
2022/06/25 07:33:26;;;;;;;5.65;5.15;;;;;;;23.86;88.52;100326.72;5058571;28;21505;-73
2022/06/25 07:35:52;;;;;;;6.03;5.45;;;;;;;23.97;90.12;100323.94;5060459;28;20314;-72
2022/06/25 07:38:19;;;;;;;7.78;5.75;;;;;;;23.88;89.86;100325.59;5063563;28;20203;-73
2022/06/25 07:40:46;;;;;;;10.57;5.60;;;;;;;23.84;90.05;100323.34;5059755;28;20202;-73
2022/06/25 07:43:14;;;;;;;6.13;5.53;;;;;;;23.93;89.61;100325.22;5065273;28;20214;-73
2022/06/25 07:45:41;;;;;;;9.70;5.82;;;;;;;24.06;90.74;100324.97;5063809;28;20579;-73
2022/06/25 07:48:08;;;;;;;5.95;5.43;;;;;;;24.08;90.19;100325.66;5059493;28;20199;-73
2022/06/25 07:53:18;;;;;;;5.70;5.10;;;;;;;24.12;90.02;100327.94;5058043;28;20638;-73
2022/06/25 07:55:44;;;;;;;5.70;5.10;;;;;;;24.11;88.60;100331.56;5056507;28;20583;-73
2022/06/25 07:58:12;;;;;;;8.90;5.32;;;;;;;24.04;87.24;100335.75;5058712;28;20199;-73
2022/06/25 08:00:39;;;;;;;8.43;5.60;;;;;;;23.92;85.51;100337.69;5058376;28;20202;-73
2022/06/25 08:03:06;;;;;;;6.75;5.72;;;;;;;23.96;87.99;100336.44;5056855;28;20206;-73
2022/06/25 08:05:33;;;;;;;7.20;5.72;;;;;;;24.12;85.32;100341.25;5058334;28;20218;-73
2022/06/25 08:08:00;;;;;;;6.18;5.10;;;;;;;24.25;85.72;100345.50;5059290;28;20206;-72
2022/06/25 08:10:26;;;;;;;8.00;5.97;;;;;;;24.23;86.75;100340.31;5058391;28;20226;-73
2022/06/25 08:12:53;;;;;;;6.50;5.90;;;;;;;24.17;87.09;100348.84;5054498;28;20214;-73
2022/06/25 08:15:21;;;;;;;6.13;5.63;;;;;;;24.21;88.80;100346.75;5060583;28;20226;-73
2022/06/25 08:17:47;;;;;;;6.50;5.78;;;;;;;24.31;87.15;100353.81;5055533;28;20470;-73
2022/06/25 08:20:14;;;;;;;9.02;6.25;;;;;;;24.35;87.03;100351.72;5056028;28;20202;-73
2022/06/25 08:22:40;;;;;;;6.75;6.03;;;;;;;24.59;87.11;100342.53;5040958;28;20206;-73
2022/06/25 08:25:08;;;;;;;6.95;6.25;;;;;;;24.90;83.38;100352.09;5054484;28;20190;-73
2022/06/25 08:27:34;;;;;;;7.72;6.05;;;;;;;25.02;80.57;100358.16;5053815;28;20238;-73
2022/06/25 08:30:01;;;;;;;6.03;5.43;;;;;;;25.24;81.35;100358.84;5063177;28;20206;-73
2022/06/25 08:32:29;;;;;;;7.72;6.35;;;;;;;25.48;79.20;100371.75;5057328;28;20221;-73
2022/06/25 08:34:55;;;;;;;6.47;5.57;;;;;;;25.60;79.10;100365.28;5057531;28;20687;-73
2022/06/25 08:37:21;;;;;;;6.63;6.03;;;;;;;25.42;77.70;100367.00;5056485;28;20224;-73
2022/06/25 08:39:48;;;;;;;6.13;5.57;;;;;;;25.39;80.01;100365.47;5057971;28;20312;-73
2022/06/25 08:42:14;;;;;;;5.85;5.30;;;;;;;25.41;76.81;100366.16;5056678;28;20423;-73
2022/06/25 08:44:40;;;;;;;8.52;5.90;;;;;;;25.29;77.10;100362.81;5057783;28;20235;-73
2022/06/25 08:47:07;;;;;;;6.93;5.47;;;;;;;25.45;80.98;100359.56;5057762;28;20214;-73
2022/06/25 08:49:35;;;;;;;5.70;5.20;;;;;;;25.41;77.75;100360.81;5058923;28;20269;-73
2022/06/25 08:52:03;;;;;;;6.13;5.53;;;;;;;25.45;75.58;100359.56;5062361;28;20745;-73
2022/06/25 08:54:33;;;;;;;6.38;5.55;;;;;;;25.62;80.65;100362.47;5065618;28;20751;-73
2022/06/25 08:56:59;;;;;;;6.57;5.65;;;;;;;25.77;75.93;100363.69;5057141;28;20399;-73
2022/06/25 08:59:27;;;;;;;6.43;5.57;;;;;;;25.85;75.51;100365.63;5057700;28;20203;-73
2022/06/25 09:01:53;;;;;;;6.35;5.43;;;;;;;25.99;75.97;100365.19;5060622;28;20218;-73
2022/06/25 09:04:20;;;;;;;6.32;5.72;;;;;;;26.17;76.11;100362.56;5042259;28;20198;-73
2022/06/25 09:06:50;;;;;;;7.13;5.35;;;;;;;26.40;74.77;100364.84;5042475;28;20233;-73
2022/06/25 09:09:17;;;;;;;8.45;5.43;;;;;;;26.63;73.70;100371.53;5062353;28;20217;-73
2022/06/25 09:11:57;;;;;;;5.95;5.40;;;;;;;26.72;72.20;100371.59;5060355;28;20553;-73
2022/06/25 09:14:27;;;;;;;5.28;4.78;;;;;;;26.86;71.11;100372.91;5061683;28;20215;-73
2022/06/25 09:17:01;;;;;;;6.15;5.57;;;;;;;27.04;71.91;100379.09;5063778;28;20478;-73
2022/06/25 09:19:29;;;;;;;6.97;5.00;;;;;;;27.29;69.47;100376.69;5063059;28;20207;-73
2022/06/25 09:21:58;;;;;;;8.40;5.20;;;;;;;27.48;69.60;100378.34;5059029;28;20203;-73
2022/06/25 09:24:39;;;;;;;6.32;5.28;;;;;;;27.67;66.87;100383.50;5061418;28;20203;-73
2022/06/25 09:27:06;;;;;;;6.32;5.00;;;;;;;27.77;64.83;100380.69;5068521;22;20234;-74
2022/06/25 09:29:37;;;;;;;5.60;5.00;;;;;;;27.98;64.68;100376.84;5034561;28;20191;-74
2022/06/25 09:32:03;;;;;;;5.20;4.70;;;;;;;28.05;66.12;100378.69;5030995;28;20275;-74
2022/06/25 09:34:33;;;;;;;5.65;5.15;;;;;;;27.79;65.26;100373.34;5037739;28;20216;-73
2022/06/25 09:37:16;;;;;;;5.75;5.10;;;;;;;27.55;65.56;100372.19;5038364;28;20225;-74
2022/06/25 09:39:42;;;;;;;5.32;4.68;;;;;;;27.57;67.44;100364.84;5059310;22;21346;-74
2022/06/25 09:42:20;;;;;;;5.22;4.75;;;;;;;27.47;66.50;100372.13;5062212;28;20214;-74
2022/06/25 09:44:47;;;;;;;6.50;4.65;;;;;;;27.44;65.21;100364.44;5055224;28;20203;-74
2022/06/25 09:47:13;;;;;;;5.50;5.00;;;;;;;27.45;66.64;100366.09;5055933;28;20578;-74
2022/06/25 09:49:40;;;;;;;5.78;5.18;;;;;;;27.50;65.21;100369.13;5056518;28;20230;-74
2022/06/25 09:52:08;;;;;;;6.07;5.13;;;;;;;27.52;65.60;100377.03;5042993;28;20322;-74
2022/06/25 09:54:35;;;;;;;5.07;4.68;;;;;;;27.37;64.83;100374.06;5045623;28;20322;-74
2022/06/25 09:57:02;;;;;;;4.90;4.40;;;;;;;27.42;62.89;100378.94;5041101;28;20667;-74
2022/06/25 09:59:32;;;;;;;5.07;4.57;;;;;;;27.65;61.77;100373.91;5050474;28;20227;-74
2022/06/25 10:01:59;;;;;;;4.47;4.07;;;;;;;27.89;65.06;100368.72;5041444;28;20867;-74
2022/06/25 10:04:28;;;;;;;5.75;5.03;;;;;;;28.05;64.30;100367.16;5048910;28;20210;-74
2022/06/25 10:06:57;;;;;;;4.40;4.00;;;;;;;27.92;62.45;100365.75;5045137;28;20223;-74
2022/06/25 10:09:25;;;;;;;7.30;4.32;;;;;;;27.73;61.16;100371.31;5050603;28;20215;-74
2022/06/25 10:11:52;;;;;;;5.10;4.30;;;;;;;27.71;61.59;100370.63;5049943;28;20204;-74
2022/06/25 10:14:19;;;;;;;8.02;4.38;;;;;;;27.99;61.43;100374.00;5048788;28;20215;-74
2022/06/25 10:16:45;;;;;;;5.10;4.32;;;;;;;28.09;59.78;100380.09;5044645;28;20200;-74
2022/06/25 10:19:12;;;;;;;7.28;4.10;;;;;;;28.26;60.86;100382.81;5054580;28;20205;-74
2022/06/25 10:21:38;;;;;;;5.13;4.20;;;;;;;28.38;59.04;100381.53;5054247;28;20676;-74
2022/06/25 10:24:07;;;;;;;4.25;3.85;;;;;;;28.38;57.30;100381.53;5046097;28;20202;-74
2022/06/25 10:26:36;;;;;;;4.28;3.97;;;;;;;28.51;56.63;100389.97;5047692;28;20686;-74
2022/06/25 10:29:03;;;;;;;4.72;4.20;;;;;;;28.74;56.84;100375.94;5041787;28;20211;-74
2022/06/25 10:31:30;;;;;;;4.40;4.00;;;;;;;29.03;55.08;100377.34;5046639;28;20219;-74
2022/06/25 10:33:59;;;;;;;3.88;3.58;;;;;;;29.13;55.96;100378.03;5043238;28;20298;-74
2022/06/25 10:36:42;;;;;;;5.22;3.90;;;;;;;29.05;54.32;100376.16;5040610;28;20200;-74
2022/06/25 10:39:37;;;;;;;7.13;4.10;;;;;;;28.96;54.16;100371.81;5039594;28;20210;-74
2022/06/25 10:45:50;;;;;;;5.22;4.18;;;;;;;29.20;56.83;100368.34;5038498;28;20218;-74
2022/06/25 10:48:19;;;;;;;4.70;4.20;;;;;;;29.07;51.22;100384.06;5048050;28;20461;-74
2022/06/25 10:50:53;;;;;;;5.22;3.75;;;;;;;28.97;55.21;100367.28;5049410;28;20242;-74
2022/06/25 10:53:30;;;;;;;5.72;4.22;;;;;;;29.11;57.34;100369.31;5050224;28;20586;-74
2022/06/25 10:56:02;;;;;;;4.47;4.07;;;;;;;29.26;53.55;100374.88;5044950;28;20190;-74
2022/06/25 10:58:41;;;;;;;4.82;4.43;;;;;;;29.31;56.49;100364.47;5042300;28;20199;-74
2022/06/25 11:01:22;;;;;;;4.63;3.67;;;;;;;29.16;52.05;100374.19;5038600;28;20761;-74
2022/06/25 11:03:55;;;;;;;4.20;3.80;;;;;;;29.33;54.04;100367.81;5029569;28;20986;-74
2022/06/25 11:06:23;;;;;;;4.45;4.05;;;;;;;29.60;52.25;100371.16;5030261;28;20222;-74
2022/06/25 11:08:52;;;;;;;4.63;4.00;;;;;;;29.70;49.87;100385.22;5033997;28;21626;-74
2022/06/25 11:11:27;;;;;;;4.70;4.30;;;;;;;29.56;52.17;100370.66;5036382;28;20231;-74
2022/06/25 11:13:54;;;;;;;4.60;4.20;;;;;;;29.68;52.00;100376.50;5035514;28;20459;-74
2022/06/25 11:16:21;;;;;;;4.25;3.95;;;;;;;29.71;51.41;100367.25;5037123;28;20179;-74
2022/06/25 11:18:48;;;;;;;4.45;4.03;;;;;;;29.62;50.74;100371.81;5037963;28;20690;-74
2022/06/25 11:21:28;;;;;;;5.22;4.72;;;;;;;29.51;53.04;100372.16;5039252;28;20785;-74
2022/06/25 11:24:04;;;;;;;5.88;4.80;;;;;;;29.38;53.89;100373.53;5046474;28;20206;-74
2022/06/25 11:29:20;;;;;;;5.13;4.72;;;;;;;28.88;55.15;100361.91;5047558;28;20203;-74
2022/06/25 11:31:46;;;;;;;5.95;5.20;;;;;;;28.65;55.90;100366.22;5037573;28;20208;-73
2022/06/25 11:34:18;;;;;;;5.70;5.18;;;;;;;28.63;55.29;100363.69;5034583;28;20262;-74
2022/06/25 11:36:46;;;;;;;7.22;5.32;;;;;;;28.61;54.62;100365.72;5035291;28;20421;-74
2022/06/25 11:39:15;;;;;;;5.30;4.88;;;;;;;28.46;54.74;100376.22;5036387;28;20699;-74
2022/06/25 11:41:41;;;;;;;5.03;4.60;;;;;;;28.36;53.21;100369.31;5037212;28;20280;-74
2022/06/25 11:44:08;;;;;;;4.90;4.40;;;;;;;28.05;54.64;100367.97;5025525;28;20222;-74
2022/06/25 11:46:35;;;;;;;4.80;4.40;;;;;;;28.06;55.55;100366.16;5035491;28;20435;-74